createdAt,value
2023-06-17T00:02:14.740Z,80.30
2023-06-17T00:04:43.041Z,80.40
2023-06-17T00:07:11.494Z,80.30
2023-06-17T00:09:42.163Z,80.50
2023-06-17T00:12:13.573Z,80.90
2023-06-17T00:14:43.225Z,81.00
2023-06-17T00:17:12.186Z,81.40
2023-06-17T00:19:41.317Z,81.70
2023-06-17T00:22:10.669Z,81.90
2023-06-17T00:24:39.211Z,82.20
2023-06-17T00:27:07.973Z,82.20
2023-06-17T00:29:37.715Z,82.10
2023-06-17T00:32:06.478Z,82.20
2023-06-17T00:34:34.786Z,82.50
2023-06-17T00:37:03.100Z,83.20
2023-06-17T00:39:31.389Z,82.60
2023-06-17T00:41:59.703Z,82.70
2023-06-17T00:44:28.000Z,82.90
2023-06-17T00:46:58.801Z,83.20
2023-06-17T00:49:35.001Z,83.70
2023-06-17T00:52:23.723Z,83.60
2023-06-17T00:54:54.425Z,83.50
2023-06-17T00:57:24.459Z,83.80
2023-06-17T00:59:53.438Z,83.90
2023-06-17T01:02:26.790Z,84.30
2023-06-17T01:04:56.989Z,84.40
2023-06-17T01:07:44.174Z,84.50
2023-06-17T01:10:19.387Z,84.90
2023-06-17T01:12:50.189Z,84.90
2023-06-17T01:15:19.657Z,85.10
2023-06-17T01:17:53.709Z,85.10
2023-06-17T01:20:23.010Z,85.20
2023-06-17T01:22:55.730Z,85.20
2023-06-17T01:25:30.865Z,85.20
2023-06-17T01:28:02.958Z,85.50
2023-06-17T01:30:31.780Z,85.50
2023-06-17T01:33:01.969Z,85.70
2023-06-17T01:35:33.967Z,85.20
2023-06-17T01:38:10.002Z,85.20
2023-06-17T01:40:42.433Z,85.60
2023-06-17T01:43:12.572Z,85.70
2023-06-17T01:45:42.442Z,85.90
2023-06-17T01:48:11.299Z,86.10
2023-06-17T01:50:39.823Z,86.10
2023-06-17T01:53:08.512Z,85.90
2023-06-17T01:55:36.886Z,86.00
2023-06-17T01:58:06.793Z,85.90
2023-06-17T02:00:35.263Z,85.90
2023-06-17T02:03:03.738Z,86.10
2023-06-17T02:05:32.210Z,86.30
2023-06-17T02:08:01.591Z,86.50
2023-06-17T02:10:33.872Z,86.80
2023-06-17T02:13:05.080Z,86.70
2023-06-17T02:15:35.058Z,86.40
2023-06-17T02:18:03.730Z,86.20
2023-06-17T02:20:32.084Z,86.50
2023-06-17T02:23:00.538Z,86.70
2023-06-17T02:25:30.248Z,87.10
2023-06-17T02:27:58.683Z,87.50
2023-06-17T02:30:27.232Z,87.70
2023-06-17T02:32:57.114Z,87.90
2023-06-17T02:35:25.594Z,88.10
2023-06-17T02:37:54.929Z,88.20
2023-06-17T02:40:23.944Z,88.50
2023-06-17T02:42:54.036Z,88.70
2023-06-17T02:45:22.334Z,88.80
2023-06-17T02:47:51.955Z,88.80
2023-06-17T02:50:24.662Z,89.20
2023-06-17T02:52:57.239Z,89.20
2023-06-17T02:55:28.499Z,89.20
2023-06-17T02:57:58.743Z,89.30
2023-06-17T03:00:32.092Z,89.30
2023-06-17T03:03:00.942Z,89.60
2023-06-17T03:05:31.395Z,89.70
2023-06-17T03:07:59.948Z,90.10
2023-06-17T03:10:28.538Z,89.80
2023-06-17T03:13:06.031Z,90.00
2023-06-17T03:15:35.076Z,90.00
2023-06-17T03:18:05.143Z,90.10
2023-06-17T03:20:36.086Z,90.00
2023-06-17T03:23:05.624Z,90.00
2023-06-17T03:25:34.112Z,90.10
2023-06-17T03:28:03.804Z,90.10
2023-06-17T03:30:32.775Z,90.20
2023-06-17T03:33:03.101Z,90.20
2023-06-17T03:35:32.602Z,90.30
2023-06-17T03:38:02.850Z,90.50
2023-06-17T03:40:31.210Z,90.40
2023-06-17T03:43:01.911Z,90.30
2023-06-17T03:45:31.807Z,90.30
2023-06-17T03:48:02.275Z,90.50
2023-06-17T03:50:32.079Z,90.60
2023-06-17T03:53:01.962Z,90.70
2023-06-17T03:55:31.443Z,90.80
2023-06-17T03:58:01.313Z,90.70
2023-06-17T04:00:32.404Z,91.00
2023-06-17T04:03:00.850Z,91.20
2023-06-17T04:05:34.508Z,91.10
2023-06-17T04:08:05.286Z,91.10
2023-06-17T04:10:35.751Z,90.90
2023-06-17T04:13:04.073Z,90.90
2023-06-17T04:15:32.690Z,90.80
2023-06-17T04:18:03.297Z,91.00
2023-06-17T04:20:35.935Z,91.10
2023-06-17T04:23:05.928Z,91.00
2023-06-17T04:25:38.026Z,91.00
2023-06-17T04:28:09.909Z,91.00
2023-06-17T04:30:41.040Z,91.10
2023-06-17T04:33:12.917Z,91.00
2023-06-17T04:35:43.135Z,91.00
2023-06-17T04:38:13.422Z,91.10
2023-06-17T04:40:43.634Z,91.10
2023-06-17T04:43:13.077Z,91.00
2023-06-17T04:45:41.402Z,91.20
2023-06-17T04:48:10.497Z,91.00
2023-06-17T04:50:39.892Z,90.90
2023-06-17T04:53:08.901Z,91.00
2023-06-17T04:55:40.549Z,91.00
2023-06-17T04:58:11.677Z,91.20
2023-06-17T05:01:00.456Z,91.20
2023-06-17T05:03:32.329Z,91.40
2023-06-17T05:06:01.089Z,91.40
2023-06-17T05:08:31.882Z,91.60
2023-06-17T05:11:03.798Z,92.00
2023-06-17T05:13:33.693Z,91.90
2023-06-17T05:16:02.306Z,92.00
2023-06-17T05:18:32.631Z,92.20
2023-06-17T05:21:01.013Z,92.40
2023-06-17T05:23:29.956Z,92.50
2023-06-17T05:25:58.368Z,92.60
2023-06-17T05:28:28.152Z,92.80
2023-06-17T05:30:56.689Z,92.60
2023-06-17T05:33:25.674Z,92.60
2023-06-17T05:35:55.445Z,92.60
2023-06-17T05:38:23.746Z,92.60
2023-06-17T05:40:52.140Z,92.70
2023-06-17T05:43:20.586Z,92.90
2023-06-17T05:45:50.469Z,93.10
2023-06-17T05:48:19.558Z,92.80
2023-06-17T05:50:48.760Z,92.90
2023-06-17T05:53:17.408Z,93.10
2023-06-17T05:55:46.073Z,93.10
2023-06-17T05:58:15.356Z,93.10
2023-06-17T06:00:53.483Z,93.50
2023-06-17T06:03:21.884Z,93.20
2023-06-17T06:05:50.961Z,93.10
2023-06-17T06:08:21.266Z,93.20
2023-06-17T06:10:49.602Z,93.20
2023-06-17T06:13:18.142Z,93.20
2023-06-17T06:15:46.744Z,93.00
2023-06-17T06:18:17.100Z,93.10
2023-06-17T06:20:45.458Z,93.30
2023-06-17T06:23:13.922Z,93.40
2023-06-17T06:25:42.821Z,93.50
2023-06-17T06:28:11.248Z,93.60
2023-06-17T06:30:40.484Z,93.70
2023-06-17T06:33:09.086Z,93.80
2023-06-17T06:35:38.898Z,93.70
2023-06-17T06:38:09.576Z,93.80
2023-06-17T06:40:38.073Z,93.80
2023-06-17T06:43:06.939Z,93.90
2023-06-17T06:45:50.168Z,93.80
2023-06-17T06:48:18.766Z,93.70
2023-06-17T06:50:48.730Z,93.40
2023-06-17T06:53:20.493Z,93.40
2023-06-17T06:55:48.917Z,93.50
2023-06-17T06:58:17.630Z,93.60
2023-06-17T07:00:46.931Z,93.50
2023-06-17T07:03:15.965Z,93.20
2023-06-17T07:05:44.804Z,93.10
2023-06-17T07:08:15.435Z,92.80
2023-06-17T07:10:44.064Z,93.10
2023-06-17T07:13:12.936Z,93.10
2023-06-17T07:15:43.859Z,93.10
2023-06-17T07:18:15.572Z,92.90
2023-06-17T07:20:44.720Z,92.80
2023-06-17T07:23:15.477Z,92.70
2023-06-17T07:25:43.987Z,92.60
2023-06-17T07:28:13.221Z,92.50
2023-06-17T07:30:42.876Z,92.50
2023-06-17T07:33:11.408Z,92.40
2023-06-17T07:35:40.214Z,92.10
2023-06-17T07:38:09.314Z,92.00
2023-06-17T07:40:39.694Z,92.00
2023-06-17T07:43:08.158Z,91.70
2023-06-17T07:45:36.509Z,91.80
2023-06-17T07:48:05.037Z,91.90
2023-06-17T07:50:33.535Z,92.00
2023-06-17T07:53:02.003Z,92.00
2023-06-17T07:55:31.315Z,91.50
2023-06-17T07:58:00.980Z,90.80
2023-06-17T08:00:29.373Z,90.60
2023-06-17T08:02:57.937Z,90.20
2023-06-17T08:05:26.505Z,89.80
2023-06-17T08:07:55.025Z,89.50
2023-06-17T08:10:23.812Z,89.50
2023-06-17T08:12:52.294Z,88.20
2023-06-17T08:15:23.443Z,88.40
2023-06-17T08:17:53.917Z,88.30
2023-06-17T08:20:23.041Z,88.20
2023-06-17T08:22:51.711Z,87.70
2023-06-17T08:25:20.064Z,87.80
2023-06-17T08:27:49.348Z,87.60
2023-06-17T08:30:18.637Z,87.40
2023-06-17T08:32:48.770Z,87.30
2023-06-17T08:35:17.816Z,87.10
2023-06-17T08:37:47.021Z,86.60
2023-06-17T08:40:16.712Z,85.50
2023-06-17T08:42:45.334Z,84.70
2023-06-17T08:45:14.737Z,84.00
2023-06-17T08:47:44.455Z,83.80
2023-06-17T08:50:15.666Z,83.30
2023-06-17T08:52:45.644Z,82.50
2023-06-17T08:55:14.577Z,82.80
2023-06-17T08:57:43.223Z,83.00
2023-06-17T09:00:12.973Z,83.30
2023-06-17T09:02:45.661Z,83.30
2023-06-17T09:05:16.373Z,83.30
2023-06-17T09:07:44.929Z,83.50
2023-06-17T09:10:17.882Z,84.10
2023-06-17T09:12:46.401Z,84.40
2023-06-17T09:15:18.124Z,84.60
2023-06-17T09:17:47.794Z,84.60
2023-06-17T09:20:19.129Z,85.90
2023-06-17T09:22:49.920Z,86.10
2023-06-17T09:25:19.750Z,86.10
2023-06-17T09:28:05.463Z,85.90
2023-06-17T09:30:43.618Z,85.90
2023-06-17T09:33:23.196Z,86.00
2023-06-17T09:36:00.920Z,85.70
2023-06-17T09:38:30.145Z,84.50
2023-06-17T09:40:59.863Z,83.80
2023-06-17T09:43:29.771Z,83.90
2023-06-17T09:46:00.885Z,84.40
2023-06-17T09:48:33.082Z,84.40
2023-06-17T09:51:06.597Z,84.40
2023-06-17T09:53:38.471Z,84.40
2023-06-17T09:56:12.363Z,84.00
2023-06-17T09:58:44.343Z,82.60
2023-06-17T10:01:14.634Z,82.90
2023-06-17T10:03:43.108Z,82.60
2023-06-17T10:06:14.173Z,81.60
2023-06-17T10:08:45.687Z,81.80
2023-06-17T10:11:15.348Z,82.50
2023-06-17T10:13:45.794Z,82.60
2023-06-17T10:16:17.568Z,82.70
2023-06-17T10:18:51.174Z,83.20
2023-06-17T10:21:25.436Z,82.60
2023-06-17T10:23:56.157Z,82.80
2023-06-17T10:26:25.110Z,82.70
2023-06-17T10:29:00.699Z,83.00
2023-06-17T10:31:31.150Z,81.90
2023-06-17T10:34:04.618Z,83.20
2023-06-17T10:36:36.510Z,83.20
2023-06-17T10:39:11.394Z,83.20
2023-06-17T10:42:01.285Z,82.80
2023-06-17T10:44:42.108Z,82.70
2023-06-17T10:47:24.228Z,82.80
2023-06-17T10:49:55.130Z,83.30
2023-06-17T10:52:24.969Z,82.40
2023-06-17T10:54:55.264Z,82.20
2023-06-17T10:57:34.020Z,80.70
2023-06-17T11:00:08.146Z,81.10
2023-06-17T11:02:38.567Z,81.70
2023-06-17T11:05:08.466Z,80.70
2023-06-17T11:07:38.297Z,80.90
2023-06-17T11:10:07.635Z,81.30
2023-06-17T11:12:37.188Z,80.90
2023-06-17T11:15:08.353Z,81.50
2023-06-17T11:17:36.772Z,82.00
2023-06-17T11:20:08.147Z,81.40
2023-06-17T11:22:40.281Z,81.00
2023-06-17T11:25:11.541Z,81.40
2023-06-17T11:27:42.153Z,81.70
2023-06-17T11:30:13.274Z,82.00
2023-06-17T11:32:43.491Z,82.50
2023-06-17T11:35:12.779Z,82.90
2023-06-17T11:37:43.428Z,82.40
2023-06-17T11:40:13.389Z,81.70
2023-06-17T11:42:42.225Z,81.80
2023-06-17T11:45:11.118Z,81.80
2023-06-17T11:47:39.530Z,82.30
2023-06-17T11:50:09.357Z,81.10
2023-06-17T11:52:38.047Z,81.20
2023-06-17T11:55:14.578Z,81.30
2023-06-17T11:57:44.614Z,81.30
2023-06-17T12:00:14.313Z,80.20
2023-06-17T12:02:43.017Z,80.10
2023-06-17T12:05:12.211Z,79.50
2023-06-17T12:07:41.711Z,78.30
2023-06-17T12:10:13.810Z,79.10
2023-06-17T12:12:42.539Z,78.80
2023-06-17T12:17:44.051Z,79.70
2023-06-17T12:20:17.108Z,80.20
2023-06-17T12:22:46.025Z,80.50
2023-06-17T12:25:16.030Z,80.80
2023-06-17T12:27:45.061Z,80.90
2023-06-17T12:30:15.884Z,79.70
2023-06-17T12:32:45.080Z,79.30
2023-06-17T12:35:17.712Z,79.30
2023-06-17T12:37:46.742Z,76.60
2023-06-17T12:40:16.542Z,77.10
2023-06-17T12:42:44.914Z,76.80
2023-06-17T12:45:14.267Z,77.50
2023-06-17T12:47:43.228Z,77.40
2023-06-17T12:50:12.355Z,77.30
2023-06-17T12:52:42.509Z,76.10
2023-06-17T12:55:11.277Z,76.20
2023-06-17T12:57:40.969Z,76.10
2023-06-17T13:00:11.911Z,76.10
2023-06-17T13:02:40.707Z,76.30
2023-06-17T13:05:09.902Z,76.10
2023-06-17T13:07:38.427Z,75.90
2023-06-17T13:10:07.935Z,75.40
2023-06-17T13:12:36.336Z,73.40
2023-06-17T13:15:07.035Z,71.50
2023-06-17T13:17:35.846Z,71.70
2023-06-17T13:20:04.373Z,71.90
2023-06-17T13:22:33.355Z,72.30
2023-06-17T13:25:01.872Z,72.50
2023-06-17T13:27:30.976Z,72.10
2023-06-17T13:30:00.005Z,72.20
2023-06-17T13:32:29.974Z,71.80
2023-06-17T13:34:58.381Z,72.70
2023-06-17T13:37:27.135Z,73.30
2023-06-17T13:39:56.415Z,73.60
2023-06-17T13:42:24.962Z,73.80
2023-06-17T13:44:53.252Z,73.70
2023-06-17T13:47:21.558Z,73.10
2023-06-17T13:49:51.257Z,73.30
2023-06-17T13:52:19.744Z,73.60
2023-06-17T13:54:48.129Z,73.40
2023-06-17T13:57:16.486Z,73.20
2023-06-17T13:59:45.075Z,72.60
2023-06-17T14:02:13.773Z,72.40
2023-06-17T14:04:43.391Z,71.60
2023-06-17T14:07:13.274Z,71.70
2023-06-17T14:09:41.755Z,71.70
2023-06-17T14:12:10.523Z,70.60
2023-06-17T14:14:39.111Z,70.00
2023-06-17T14:17:07.816Z,70.00
2023-06-17T14:19:36.641Z,71.10
2023-06-17T14:22:07.236Z,71.50
2023-06-17T14:24:39.610Z,71.90
2023-06-17T14:27:35.221Z,71.00
2023-06-17T14:30:03.753Z,70.90
2023-06-17T14:32:32.818Z,69.20
2023-06-17T14:35:01.321Z,69.90
2023-06-17T14:37:30.732Z,69.40
2023-06-17T14:40:00.835Z,68.70
2023-06-17T14:42:29.290Z,68.90
2023-06-17T14:44:57.618Z,69.30
2023-06-17T14:47:26.132Z,69.70
2023-06-17T14:49:54.736Z,68.80
2023-06-17T14:52:24.447Z,66.60
2023-06-17T14:54:54.445Z,65.80
2023-06-17T14:57:24.252Z,65.80
2023-06-17T14:59:52.801Z,66.40
2023-06-17T15:02:31.293Z,65.30
2023-06-17T15:04:59.929Z,65.30
2023-06-17T15:07:28.183Z,65.00
2023-06-17T15:09:56.437Z,65.10
2023-06-17T15:12:26.160Z,65.40
2023-06-17T15:14:54.689Z,65.60
2023-06-17T15:17:23.291Z,65.40
2023-06-17T15:19:51.675Z,65.90
2023-06-17T15:22:20.464Z,65.80
2023-06-17T15:24:48.751Z,65.50
2023-06-17T15:27:17.100Z,65.60
2023-06-17T15:29:46.837Z,65.20
2023-06-17T15:32:15.197Z,63.10
2023-06-17T15:34:43.590Z,64.00
2023-06-17T15:37:12.047Z,64.70
2023-06-17T15:39:40.371Z,63.60
2023-06-17T15:42:09.356Z,63.40
2023-06-17T15:44:37.745Z,63.10
2023-06-17T15:47:07.860Z,63.20
2023-06-17T15:49:36.905Z,64.00
2023-06-17T15:52:06.466Z,64.20
2023-06-17T15:54:34.757Z,64.00
2023-06-17T15:57:05.247Z,64.50
2023-06-17T15:59:36.355Z,64.50
2023-06-17T16:02:05.118Z,63.70
2023-06-17T16:04:36.676Z,63.80
2023-06-17T16:07:06.782Z,64.50
2023-06-17T16:09:36.765Z,64.30
2023-06-17T16:12:06.299Z,65.10
2023-06-17T16:14:36.348Z,63.20
2023-06-17T16:17:07.021Z,63.30
2023-06-17T16:19:37.339Z,63.60
2023-06-17T16:22:11.251Z,64.00
2023-06-17T16:24:40.404Z,64.10
2023-06-17T16:27:09.570Z,64.30
2023-06-17T16:29:37.876Z,64.20
2023-06-17T16:32:06.851Z,64.60
2023-06-17T16:34:37.069Z,64.30
2023-06-17T16:37:06.017Z,63.40
2023-06-17T16:39:34.488Z,63.40
2023-06-17T16:42:06.623Z,63.70
2023-06-17T16:44:36.121Z,63.80
2023-06-17T16:47:04.868Z,64.20
2023-06-17T16:49:33.252Z,64.40
2023-06-17T16:52:03.294Z,65.30
2023-06-17T16:54:31.792Z,64.40
2023-06-17T16:57:00.171Z,64.60
2023-06-17T16:59:28.527Z,64.70
2023-06-17T17:01:57.424Z,65.10
2023-06-17T17:04:25.728Z,65.10
2023-06-17T17:06:53.968Z,64.70
2023-06-17T17:09:23.634Z,64.70
2023-06-17T17:11:51.935Z,64.40
2023-06-17T17:14:20.313Z,63.90
2023-06-17T17:16:48.618Z,64.10
2023-06-17T17:19:17.043Z,64.00
2023-06-17T17:21:46.452Z,63.80
2023-06-17T17:24:15.066Z,64.00
2023-06-17T17:26:44.726Z,64.50
2023-06-17T17:29:13.006Z,64.70
2023-06-17T17:31:41.362Z,64.70
2023-06-17T17:34:09.666Z,64.50
2023-06-17T17:36:38.081Z,64.40
2023-06-17T17:39:07.971Z,64.30
2023-06-17T17:41:36.382Z,64.60
2023-06-17T17:44:06.278Z,64.70
2023-06-17T17:46:34.622Z,65.10
2023-06-17T17:49:03.059Z,65.40
2023-06-17T17:51:31.393Z,65.30
2023-06-17T17:53:59.719Z,65.50
2023-06-17T17:56:28.575Z,65.40
2023-06-17T17:59:00.074Z,65.40
2023-06-17T18:01:29.922Z,65.70
2023-06-17T18:03:58.802Z,65.70
2023-06-17T18:06:30.397Z,65.50
2023-06-17T18:08:59.016Z,65.30
2023-06-17T18:11:28.385Z,64.80
2023-06-17T18:13:56.934Z,64.70
2023-06-17T18:16:25.469Z,64.90
2023-06-17T18:18:55.265Z,64.90
2023-06-17T18:21:28.192Z,65.00
2023-06-17T18:23:56.712Z,65.10
2023-06-17T18:26:25.429Z,65.50
2023-06-17T18:28:53.833Z,65.70
2023-06-17T18:31:22.103Z,65.90
2023-06-17T18:33:50.735Z,66.10
2023-06-17T18:36:21.011Z,66.40
2023-06-17T18:38:49.388Z,66.70
2023-06-17T18:41:17.732Z,66.80
2023-06-17T18:43:46.259Z,66.90
2023-06-17T18:46:14.772Z,66.90
2023-06-17T18:48:44.796Z,67.00
2023-06-17T18:51:13.128Z,67.00
2023-06-17T18:53:43.143Z,66.90
2023-06-17T18:56:11.651Z,67.00
2023-06-17T18:58:40.098Z,67.10
2023-06-17T19:01:08.569Z,67.10
2023-06-17T19:03:37.606Z,66.70
2023-06-17T19:06:06.358Z,66.60
2023-06-17T19:08:34.740Z,66.50
2023-06-17T19:11:04.472Z,66.50
2023-06-17T19:13:32.736Z,66.50
2023-06-17T19:16:01.122Z,66.90
2023-06-17T19:18:29.382Z,67.20
2023-06-17T19:20:57.693Z,67.70
2023-06-17T19:23:26.089Z,68.20
2023-06-17T19:25:54.598Z,68.80
2023-06-17T19:28:24.966Z,69.50
2023-06-17T19:30:53.301Z,69.80
2023-06-17T19:33:22.439Z,69.80
2023-06-17T19:35:50.778Z,69.80
2023-06-17T19:38:19.151Z,69.70
2023-06-17T19:40:47.596Z,69.50
2023-06-17T19:43:20.678Z,69.60
2023-06-17T19:45:53.190Z,69.80
2023-06-17T19:48:22.069Z,70.40
2023-06-17T19:50:50.744Z,71.10
2023-06-17T19:53:19.046Z,71.80
2023-06-17T19:55:47.420Z,72.40
2023-06-17T19:58:15.963Z,73.10
2023-06-17T20:00:44.262Z,73.50
2023-06-17T20:03:14.674Z,73.80
2023-06-17T20:05:43.211Z,74.30
2023-06-17T20:08:11.553Z,74.60
2023-06-17T20:10:40.332Z,74.60
2023-06-17T20:13:09.964Z,75.10
2023-06-17T20:15:38.618Z,75.40
2023-06-17T20:18:07.125Z,75.80
2023-06-17T20:20:36.814Z,76.20
2023-06-17T20:23:09.120Z,76.60
2023-06-17T20:25:37.548Z,77.00
2023-06-17T20:28:06.167Z,77.30
2023-06-17T20:30:34.490Z,77.60
2023-06-17T20:33:04.829Z,77.80
2023-06-17T20:35:33.261Z,78.10
2023-06-17T20:38:02.966Z,78.20
2023-06-17T20:40:31.594Z,78.10
2023-06-17T20:42:59.957Z,78.00
2023-06-17T20:45:28.343Z,77.60
2023-06-17T20:47:56.789Z,77.40
2023-06-17T20:50:27.316Z,77.50
2023-06-17T20:52:57.441Z,78.40
2023-06-17T20:55:29.830Z,78.80
2023-06-17T20:57:58.440Z,79.10
2023-06-17T21:00:30.893Z,79.40
2023-06-17T21:02:59.327Z,79.40
2023-06-17T21:05:27.897Z,79.40
2023-06-17T21:07:56.759Z,79.50
2023-06-17T21:10:25.258Z,80.40
2023-06-17T21:12:54.965Z,79.90
2023-06-17T21:15:23.597Z,80.20
2023-06-17T21:17:52.090Z,80.40
2023-06-17T21:20:21.774Z,80.90
2023-06-17T21:22:54.550Z,80.90
2023-06-17T21:25:23.341Z,81.10
2023-06-17T21:27:51.822Z,81.10
2023-06-17T21:30:21.938Z,81.30
2023-06-17T21:32:50.590Z,81.50
2023-06-17T21:35:19.290Z,81.50
2023-06-17T21:37:47.634Z,81.70
2023-06-17T21:40:16.079Z,81.50
2023-06-17T21:42:44.641Z,81.40
2023-06-17T21:45:13.318Z,81.50
2023-06-17T21:47:43.192Z,82.00
2023-06-17T21:50:12.246Z,82.50
2023-06-17T21:52:40.776Z,82.80
2023-06-17T21:55:10.653Z,83.20
2023-06-17T21:57:39.146Z,83.10
2023-06-17T22:00:10.812Z,83.10
2023-06-17T22:02:43.872Z,83.20
2023-06-17T22:05:12.400Z,82.70
2023-06-17T22:07:40.834Z,82.60
2023-06-17T22:10:10.089Z,82.50
2023-06-17T22:12:38.617Z,82.40
2023-06-17T22:15:08.282Z,82.40
2023-06-17T22:17:36.754Z,82.60
2023-06-17T22:20:07.717Z,82.80
2023-06-17T22:22:36.026Z,83.20
2023-06-17T22:25:06.609Z,83.50
2023-06-17T22:27:36.054Z,83.50
2023-06-17T22:30:04.676Z,83.70
2023-06-17T22:32:33.086Z,84.00
2023-06-17T22:35:01.592Z,84.40
2023-06-17T22:37:31.315Z,84.80
2023-06-17T22:39:59.675Z,85.10
2023-06-17T22:42:27.991Z,85.20
2023-06-17T22:44:56.587Z,85.60
2023-06-17T22:47:25.060Z,85.70
2023-06-17T22:49:53.494Z,86.00
2023-06-17T22:52:22.033Z,86.40
2023-06-17T22:54:51.896Z,86.60
2023-06-17T22:57:20.509Z,86.90
2023-06-17T22:59:48.826Z,87.30
2023-06-17T23:02:17.250Z,87.70
2023-06-17T23:04:45.686Z,87.80
2023-06-17T23:07:14.111Z,87.80
2023-06-17T23:09:42.507Z,88.00
2023-06-17T23:12:12.858Z,88.40
2023-06-17T23:14:41.225Z,88.80
2023-06-17T23:17:09.584Z,89.00
2023-06-17T23:19:37.886Z,88.90
2023-06-17T23:22:07.581Z,88.90
2023-06-17T23:24:36.248Z,89.20
2023-06-17T23:27:05.421Z,90.00
2023-06-17T23:29:36.544Z,89.40
2023-06-17T23:32:05.354Z,89.40
2023-06-17T23:34:33.786Z,89.50
2023-06-17T23:37:02.519Z,89.80
2023-06-17T23:39:31.029Z,90.00
2023-06-17T23:41:59.275Z,90.10
2023-06-17T23:44:27.626Z,90.10
2023-06-17T23:46:57.357Z,90.20
2023-06-17T23:49:25.634Z,90.30
2023-06-17T23:51:53.928Z,90.40
2023-06-17T23:54:22.251Z,90.40
2023-06-17T23:56:50.720Z,90.40
2023-06-17T23:59:19.033Z,90.60
